• Join FlightAware (Why Join?)
  • Login
  • US Flag 
12:33AM EDT


 

Airport Tracker/Info


-or-


 

Live Flight TrackerFlight Track Log ✈ N469LC ✈ 13-May-2013 ✈ KCHS - KGVL

Flight Track Log - Related Links

Times and Time Zones

All times are in EDT time to prevent confusion due to time zone crossing. See the N469LC flight status page for this flight to view local times or setup timezone preferences in your user account.

Time Position Orientation Groundspeed Altitude Reporting Facility
EDT Latitude Longitude Course Direction KTS MPH feet Rate Location/Type
01:58AM 32.9879 -80.2803 292° West  Level FlightAware Approximate
01:59AM 33.0051 -80.3319 292° West  Level FlightAware Approximate
02:00AM 33.0282 -80.3782 320° Northwest  Level FlightAware Approximate
02:01AM 33.0491 -80.4270 293° West  Level FlightAware Approximate
02:02AM 33.0676 -80.4779 293° West  Level FlightAware Approximate
02:03AM 33.0860 -80.5289 293° West  Level FlightAware Approximate
02:04AM 33.1043 -80.5799 293° West  Level FlightAware Approximate
02:05AM 33.1227 -80.6309 293° West  Level FlightAware Approximate
02:06AM 33.1410 -80.6819 293° West  Level FlightAware Approximate
02:07AM 33.1593 -80.7330 293° West  Level FlightAware Approximate
02:08AM 33.1776 -80.7840 293° West  Level FlightAware Approximate
02:09AM 33.1962 -80.8349 294° West  Level FlightAware Approximate
02:10AM 33.2150 -80.8858 294° West  Level FlightAware Approximate
02:11AM 33.2337 -80.9367 294° West  Level FlightAware Approximate
02:12AM 33.2525 -80.9875 294° West  Level FlightAware Approximate
02:13AM 33.2712 -81.0385 294° West  Level FlightAware Approximate
02:14AM 33.2898 -81.0894 294° West  Level FlightAware Approximate
02:15AM 33.3085 -81.1404 294° West  Level FlightAware Approximate
02:16AM 33.3271 -81.1913 294° West  Level FlightAware Approximate
02:17AM 33.3458 -81.2423 294° West  Level FlightAware Approximate
02:18AM 33.3643 -81.2934 294° West  Level FlightAware Approximate
02:19AM 33.3829 -81.3444 294° West  Level FlightAware Approximate
02:20AM 33.4015 -81.3955 294° West  Level FlightAware Approximate
02:21AM 33.4200 -81.4466 294° West  Level FlightAware Approximate
02:22AM 33.4385 -81.4977 293° West  Level FlightAware Approximate
02:23AM 33.4569 -81.5489 293° West  Level FlightAware Approximate
02:24AM 33.4753 -81.6001 293° West  Level FlightAware Approximate
02:25AM 33.4936 -81.6513 293° West  Level FlightAware Approximate
02:26AM 33.5119 -81.7026 293° West  Level FlightAware Approximate
02:27AM 33.5302 -81.7538 293° West  Level FlightAware Approximate
02:28AM 33.5485 -81.8051 293° West  Level FlightAware Approximate
02:28AM 33.5089 -81.8014 295° West 192 221 8,100  Level Atlanta Center
02:29AM 33.5668 -81.8565 293° West  Level FlightAware Approximate
02:29AM 33.5286 -81.8533 294° West 187 215 8,100  Level Atlanta Center
02:30AM 33.5850 -81.9078 293° West  Level FlightAware Approximate
02:30AM 33.5461 -81.9053 292° West 182 209 8,100  Level Atlanta Center
02:31AM 33.6035 -81.9590 295° West  Level FlightAware Approximate
02:31AM 33.5678 -81.9569 297° West 177 204 8,100  Level Atlanta Center
02:32AM 33.6230 -82.0097 295° West  Level FlightAware Approximate
02:32AM 33.5875 -82.0089 295° West 172 198 8,100  Level Atlanta Center
02:33AM 33.6425 -82.0604 295° West  Level FlightAware Approximate
02:33AM 33.6072 -82.0608 295° West 172 198 8,100  Level Atlanta Center
02:34AM 33.6289 -82.1128 297° West 172 198 8,100  Level Atlanta Center
02:35AM 33.6486 -82.1672 294° West 172 198 8,100  Level Atlanta Center
02:36AM 33.6681 -82.2167 295° West 172 198 8,100  Level Atlanta Center
02:37AM 33.6875 -82.2711 293° West 172 198 8,100  Level Atlanta Center
02:38AM 33.7072 -82.3208 296° West 172 198 8,100  Level Atlanta Center
02:39AM 33.7267 -82.3728 294° West 172 198 8,100  Level Atlanta Center
02:40AM 33.7483 -82.4300 294° West 172 198 8,100  Level Atlanta Center
02:41AM 33.7697 -82.4869 294° West 172 198 8,100  Level Atlanta Center
02:42AM 33.7869 -82.5317 295° West 172 198 8,100  Level Atlanta Center
02:43AM 33.8064 -82.5839 294° West 172 198 8,100  Level Atlanta Center
02:44AM 33.8281 -82.6358 297° West 172 198 8,100  Level Atlanta Center
02:45AM 33.8472 -82.6906 293° West 172 198 8,100  Level Atlanta Center
02:46AM 33.8667 -82.7428 294° West 172 198 8,200  Climbing Atlanta Center
02:47AM 33.8861 -82.7950 294° West 172 198 8,200  Level Atlanta Center
02:48AM 33.9075 -82.8472 296° West 172 198 8,200  Level Atlanta Center
02:49AM 33.9267 -82.9047 292° West 172 198 8,200  Level Atlanta Center
02:50AM 33.9481 -82.9569 296° West 172 198 8,200  Level Atlanta Center
02:51AM 33.9672 -83.0119 293° West 172 198 8,200  Level Atlanta Center
02:52AM 33.9867 -83.0667 293° West 172 198 8,200 -180 Level Atlanta Center
02:53AM 34.0078 -83.1217 295° West 172 198 7,900 -420 Descending Atlanta Center
02:54AM 34.0292 -83.1792 294° West 177 204 7,400 -540 Descending Atlanta Center
02:55AM 34.0506 -83.2389 293° West 182 209 6,900 -360 Descending Atlanta Center
02:56AM 34.0717 -83.2939 295° West 187 215 6,700 -300 Descending Atlanta Center
02:57AM 34.0950 -83.3489 297° West 187 215 6,400 -300 Descending Atlanta Center
02:58AM 34.1161 -83.4064 294° West 187 215 6,100 -360 Descending Atlanta Center
02:59AM 34.1372 -83.4717 291° West 192 221 5,700 -360 Descending Atlanta Center
03:00AM 34.1606 -83.5267 297° West 187 215 5,400 -300 Descending Atlanta Center